Terminal Aerodrome Forecast
Issued by NWS

Home | Current Version | Previous Version | Text Only | Print | Product List | Glossary On
Versions: 1 2 3 4 5 6 7 8 9 10 11 12 13 14 15
000
FTUS46 KOTX 202333
TAFSFF
TAF
KSFF 202333Z 2100/2124 09005KT P6SM SCT090 SCT120
     FM210200 VRB03KT P6SM SCT050 OVC080
     FM210800 VRB03KT 5SM BR SCT006 OVC050
     FM211600 VRB03KT 3SM -SN SCT008 OVC020
     FM212000 06004KT P6SM BKN025 OVC050=

USA.gov is the U.S. government's official web portal to all federal, state and local government web resources and services.